sensor_id;sensor_type;location;lat;lon;timestamp;temperature;humidity
47520;DHT22;33252;48.122;11.538;2023-06-26T00:01:15;18.80;81.60
47520;DHT22;33252;48.122;11.538;2023-06-26T00:03:41;18.70;83.30
47520;DHT22;33252;48.122;11.538;2023-06-26T00:06:06;18.70;82.90
47520;DHT22;33252;48.122;11.538;2023-06-26T00:08:32;18.60;83.60
47520;DHT22;33252;48.122;11.538;2023-06-26T00:10:58;18.60;83.20
47520;DHT22;33252;48.122;11.538;2023-06-26T00:13:24;18.60;83.90
47520;DHT22;33252;48.122;11.538;2023-06-26T00:15:50;18.50;84.50
47520;DHT22;33252;48.122;11.538;2023-06-26T00:18:16;18.50;84.70
47520;DHT22;33252;48.122;11.538;2023-06-26T00:20:41;18.50;84.60
47520;DHT22;33252;48.122;11.538;2023-06-26T00:23:07;18.20;85.70
47520;DHT22;33252;48.122;11.538;2023-06-26T00:25:36;18.20;86.20
47520;DHT22;33252;48.122;11.538;2023-06-26T00:28:01;18.30;86.20
47520;DHT22;33252;48.122;11.538;2023-06-26T00:30:27;18.20;86.10
47520;DHT22;33252;48.122;11.538;2023-06-26T00:32:53;18.20;86.00
47520;DHT22;33252;48.122;11.538;2023-06-26T00:35:18;17.90;86.70
47520;DHT22;33252;48.122;11.538;2023-06-26T00:37:44;17.90;86.80
47520;DHT22;33252;48.122;11.538;2023-06-26T00:40:10;17.90;87.00
47520;DHT22;33252;48.122;11.538;2023-06-26T00:42:36;17.80;87.30
47520;DHT22;33252;48.122;11.538;2023-06-26T00:45:01;17.80;86.70
47520;DHT22;33252;48.122;11.538;2023-06-26T00:47:27;17.80;87.40
47520;DHT22;33252;48.122;11.538;2023-06-26T00:49:54;17.80;86.50
47520;DHT22;33252;48.122;11.538;2023-06-26T00:52:20;17.80;87.10
47520;DHT22;33252;48.122;11.538;2023-06-26T00:54:46;17.90;88.70
47520;DHT22;33252;48.122;11.538;2023-06-26T00:57:12;18.00;88.30
47520;DHT22;33252;48.122;11.538;2023-06-26T00:59:38;18.00;87.80
47520;DHT22;33252;48.122;11.538;2023-06-26T01:02:04;18.00;85.60
47520;DHT22;33252;48.122;11.538;2023-06-26T01:04:31;18.00;85.00
47520;DHT22;33252;48.122;11.538;2023-06-26T01:06:59;17.90;84.90
47520;DHT22;33252;48.122;11.538;2023-06-26T01:09:25;17.90;84.50
47520;DHT22;33252;48.122;11.538;2023-06-26T01:11:51;17.90;84.30
47520;DHT22;33252;48.122;11.538;2023-06-26T01:14:17;18.10;85.10
47520;DHT22;33252;48.122;11.538;2023-06-26T01:16:43;18.10;86.20
47520;DHT22;33252;48.122;11.538;2023-06-26T01:19:23;18.10;84.50
47520;DHT22;33252;48.122;11.538;2023-06-26T01:21:55;18.10;84.80
47520;DHT22;33252;48.122;11.538;2023-06-26T01:24:22;18.20;84.30
47520;DHT22;33252;48.122;11.538;2023-06-26T01:26:53;18.10;83.80
47520;DHT22;33252;48.122;11.538;2023-06-26T01:29:19;18.10;83.80
47520;DHT22;33252;48.122;11.538;2023-06-26T01:31:49;18.10;83.60
47520;DHT22;33252;48.122;11.538;2023-06-26T01:34:17;18.20;83.60
47520;DHT22;33252;48.122;11.538;2023-06-26T01:36:44;18.20;83.20
47520;DHT22;33252;48.122;11.538;2023-06-26T01:39:15;18.20;83.20
47520;DHT22;33252;48.122;11.538;2023-06-26T01:41:40;18.20;83.20
47520;DHT22;33252;48.122;11.538;2023-06-26T01:51:42;18.10;84.20
47520;DHT22;33252;48.122;11.538;2023-06-26T01:54:14;18.10;84.20
47520;DHT22;33252;48.122;11.538;2023-06-26T01:56:43;18.00;84.80
47520;DHT22;33252;48.122;11.538;2023-06-26T01:59:11;18.00;84.60
47520;DHT22;33252;48.122;11.538;2023-06-26T02:01:39;18.00;84.40
47520;DHT22;33252;48.122;11.538;2023-06-26T02:04:05;18.00;84.30
47520;DHT22;33252;48.122;11.538;2023-06-26T02:06:30;17.90;84.70
47520;DHT22;33252;48.122;11.538;2023-06-26T02:08:56;18.00;84.70
47520;DHT22;33252;48.122;11.538;2023-06-26T02:11:22;17.90;84.80
47520;DHT22;33252;48.122;11.538;2023-06-26T02:13:48;17.90;85.30
47520;DHT22;33252;48.122;11.538;2023-06-26T02:16:14;17.90;85.70
47520;DHT22;33252;48.122;11.538;2023-06-26T02:18:39;17.90;85.50
47520;DHT22;33252;48.122;11.538;2023-06-26T02:21:06;17.80;85.50
47520;DHT22;33252;48.122;11.538;2023-06-26T02:23:32;17.80;85.70
47520;DHT22;33252;48.122;11.538;2023-06-26T02:25:57;17.80;85.70
47520;DHT22;33252;48.122;11.538;2023-06-26T02:28:23;17.80;85.60
47520;DHT22;33252;48.122;11.538;2023-06-26T02:30:49;17.80;85.60
47520;DHT22;33252;48.122;11.538;2023-06-26T02:33:14;17.80;85.80
47520;DHT22;33252;48.122;11.538;2023-06-26T02:35:40;17.80;85.60
47520;DHT22;33252;48.122;11.538;2023-06-26T02:38:06;17.70;86.00
47520;DHT22;33252;48.122;11.538;2023-06-26T02:40:31;17.70;86.60
47520;DHT22;33252;48.122;11.538;2023-06-26T02:42:57;17.70;86.20
47520;DHT22;33252;48.122;11.538;2023-06-26T02:45:23;17.60;86.40
47520;DHT22;33252;48.122;11.538;2023-06-26T02:47:49;17.60;86.30
47520;DHT22;33252;48.122;11.538;2023-06-26T02:50:14;17.60;86.30
47520;DHT22;33252;48.122;11.538;2023-06-26T02:52:40;17.60;86.00
47520;DHT22;33252;48.122;11.538;2023-06-26T02:55:06;17.60;86.20
47520;DHT22;33252;48.122;11.538;2023-06-26T02:57:32;17.60;86.20
47520;DHT22;33252;48.122;11.538;2023-06-26T02:59:57;17.60;86.30
47520;DHT22;33252;48.122;11.538;2023-06-26T03:02:23;17.50;86.40
47520;DHT22;33252;48.122;11.538;2023-06-26T03:04:48;17.60;86.30
47520;DHT22;33252;48.122;11.538;2023-06-26T03:07:15;17.60;86.40
47520;DHT22;33252;48.122;11.538;2023-06-26T03:09:41;17.60;86.10
47520;DHT22;33252;48.122;11.538;2023-06-26T03:12:07;17.60;86.10
47520;DHT22;33252;48.122;11.538;2023-06-26T03:14:33;17.60;86.30
47520;DHT22;33252;48.122;11.538;2023-06-26T03:16:59;17.60;86.20
47520;DHT22;33252;48.122;11.538;2023-06-26T03:19:28;17.50;86.40
47520;DHT22;33252;48.122;11.538;2023-06-26T03:21:54;17.50;86.30
47520;DHT22;33252;48.122;11.538;2023-06-26T03:24:20;17.50;86.50
47520;DHT22;33252;48.122;11.538;2023-06-26T03:26:46;17.60;86.70
47520;DHT22;33252;48.122;11.538;2023-06-26T03:29:11;17.60;86.50
47520;DHT22;33252;48.122;11.538;2023-06-26T03:31:37;17.60;86.00
47520;DHT22;33252;48.122;11.538;2023-06-26T03:34:03;17.60;86.00
47520;DHT22;33252;48.122;11.538;2023-06-26T03:36:28;17.60;86.30
47520;DHT22;33252;48.122;11.538;2023-06-26T03:38:54;17.60;86.10
47520;DHT22;33252;48.122;11.538;2023-06-26T03:41:23;17.60;86.20
47520;DHT22;33252;48.122;11.538;2023-06-26T03:43:49;17.60;86.20
47520;DHT22;33252;48.122;11.538;2023-06-26T03:46:14;17.60;85.90
47520;DHT22;33252;48.122;11.538;2023-06-26T03:48:40;17.60;85.80
47520;DHT22;33252;48.122;11.538;2023-06-26T03:51:06;17.60;86.20
47520;DHT22;33252;48.122;11.538;2023-06-26T03:53:33;17.60;86.00
47520;DHT22;33252;48.122;11.538;2023-06-26T03:55:59;17.60;86.00
47520;DHT22;33252;48.122;11.538;2023-06-26T03:58:24;17.60;86.10
47520;DHT22;33252;48.122;11.538;2023-06-26T04:00:50;17.60;86.10
47520;DHT22;33252;48.122;11.538;2023-06-26T04:03:16;17.60;86.10
47520;DHT22;33252;48.122;11.538;2023-06-26T04:05:42;17.60;86.20
47520;DHT22;33252;48.122;11.538;2023-06-26T04:08:08;17.70;86.00
47520;DHT22;33252;48.122;11.538;2023-06-26T04:10:34;17.70;86.10
47520;DHT22;33252;48.122;11.538;2023-06-26T04:13:01;17.70;85.90
47520;DHT22;33252;48.122;11.538;2023-06-26T04:15:27;17.70;85.90
47520;DHT22;33252;48.122;11.538;2023-06-26T04:17:53;17.70;86.20
47520;DHT22;33252;48.122;11.538;2023-06-26T04:20:19;17.70;86.10
47520;DHT22;33252;48.122;11.538;2023-06-26T04:22:44;17.70;86.20
47520;DHT22;33252;48.122;11.538;2023-06-26T04:25:10;17.70;86.40
47520;DHT22;33252;48.122;11.538;2023-06-26T04:27:37;17.80;86.00
47520;DHT22;33252;48.122;11.538;2023-06-26T04:30:03;17.80;86.20
47520;DHT22;33252;48.122;11.538;2023-06-26T04:32:30;17.90;85.70
47520;DHT22;33252;48.122;11.538;2023-06-26T04:34:56;17.90;85.90
47520;DHT22;33252;48.122;11.538;2023-06-26T04:37:22;18.00;85.70
47520;DHT22;33252;48.122;11.538;2023-06-26T04:39:50;18.00;85.70
47520;DHT22;33252;48.122;11.538;2023-06-26T04:42:15;18.10;85.60
47520;DHT22;33252;48.122;11.538;2023-06-26T04:44:41;18.20;85.40
47520;DHT22;33252;48.122;11.538;2023-06-26T04:47:08;18.30;85.10
47520;DHT22;33252;48.122;11.538;2023-06-26T04:49:34;18.30;84.90
47520;DHT22;33252;48.122;11.538;2023-06-26T04:51:59;18.40;84.50
47520;DHT22;33252;48.122;11.538;2023-06-26T04:54:25;18.40;84.40
47520;DHT22;33252;48.122;11.538;2023-06-26T04:56:54;18.50;84.60
47520;DHT22;33252;48.122;11.538;2023-06-26T04:59:20;18.60;84.50
47520;DHT22;33252;48.122;11.538;2023-06-26T05:01:46;18.70;83.80
47520;DHT22;33252;48.122;11.538;2023-06-26T05:04:14;18.70;83.90
47520;DHT22;33252;48.122;11.538;2023-06-26T05:06:40;18.80;84.20
47520;DHT22;33252;48.122;11.538;2023-06-26T05:09:06;18.90;84.60
47520;DHT22;33252;48.122;11.538;2023-06-26T05:11:32;18.90;83.70
47520;DHT22;33252;48.122;11.538;2023-06-26T05:13:58;19.00;84.10
47520;DHT22;33252;48.122;11.538;2023-06-26T05:16:23;19.10;83.60
47520;DHT22;33252;48.122;11.538;2023-06-26T05:18:49;19.10;83.20
47520;DHT22;33252;48.122;11.538;2023-06-26T05:21:16;19.20;83.10
47520;DHT22;33252;48.122;11.538;2023-06-26T05:23:42;19.30;82.70
47520;DHT22;33252;48.122;11.538;2023-06-26T05:26:10;19.40;82.20
47520;DHT22;33252;48.122;11.538;2023-06-26T05:28:36;19.50;82.20
47520;DHT22;33252;48.122;11.538;2023-06-26T05:31:03;19.60;81.50
47520;DHT22;33252;48.122;11.538;2023-06-26T05:33:31;19.70;81.90
47520;DHT22;33252;48.122;11.538;2023-06-26T05:35:59;19.80;81.20
47520;DHT22;33252;48.122;11.538;2023-06-26T05:38:25;19.90;81.30
47520;DHT22;33252;48.122;11.538;2023-06-26T05:40:51;20.00;80.80
47520;DHT22;33252;48.122;11.538;2023-06-26T05:43:17;20.10;80.80
47520;DHT22;33252;48.122;11.538;2023-06-26T05:45:47;20.20;80.50
47520;DHT22;33252;48.122;11.538;2023-06-26T05:48:13;20.20;80.50
47520;DHT22;33252;48.122;11.538;2023-06-26T05:50:39;20.40;80.30
47520;DHT22;33252;48.122;11.538;2023-06-26T05:53:07;20.50;79.60
47520;DHT22;33252;48.122;11.538;2023-06-26T05:55:33;20.60;79.80
47520;DHT22;33252;48.122;11.538;2023-06-26T05:57:59;20.70;79.80
47520;DHT22;33252;48.122;11.538;2023-06-26T06:00:27;20.80;80.00
47520;DHT22;33252;48.122;11.538;2023-06-26T06:02:53;20.90;79.10
47520;DHT22;33252;48.122;11.538;2023-06-26T06:05:20;21.10;78.50
47520;DHT22;33252;48.122;11.538;2023-06-26T06:07:47;21.20;78.20
47520;DHT22;33252;48.122;11.538;2023-06-26T06:10:13;21.20;78.50
47520;DHT22;33252;48.122;11.538;2023-06-26T06:12:38;21.40;78.10
47520;DHT22;33252;48.122;11.538;2023-06-26T06:15:05;21.40;77.80
47520;DHT22;33252;48.122;11.538;2023-06-26T06:17:31;21.50;77.80
47520;DHT22;33252;48.122;11.538;2023-06-26T06:19:56;21.70;76.90
47520;DHT22;33252;48.122;11.538;2023-06-26T06:22:22;21.80;77.50
47520;DHT22;33252;48.122;11.538;2023-06-26T06:24:49;21.90;77.20
47520;DHT22;33252;48.122;11.538;2023-06-26T06:27:15;22.10;76.30
47520;DHT22;33252;48.122;11.538;2023-06-26T06:29:41;22.20;75.90
47520;DHT22;33252;48.122;11.538;2023-06-26T06:32:07;22.30;75.40
47520;DHT22;33252;48.122;11.538;2023-06-26T06:34:33;22.30;75.90
47520;DHT22;33252;48.122;11.538;2023-06-26T06:36:59;22.50;75.80
47520;DHT22;33252;48.122;11.538;2023-06-26T06:39:24;22.70;73.20
47520;DHT22;33252;48.122;11.538;2023-06-26T06:41:50;22.90;73.00
47520;DHT22;33252;48.122;11.538;2023-06-26T06:44:15;22.90;73.50
47520;DHT22;33252;48.122;11.538;2023-06-26T06:46:41;23.10;73.60
47520;DHT22;33252;48.122;11.538;2023-06-26T06:49:08;23.20;72.00
47520;DHT22;33252;48.122;11.538;2023-06-26T06:51:34;23.30;72.80
47520;DHT22;33252;48.122;11.538;2023-06-26T06:54:00;23.50;72.60
47520;DHT22;33252;48.122;11.538;2023-06-26T06:56:26;23.50;73.10
47520;DHT22;33252;48.122;11.538;2023-06-26T06:58:51;23.60;71.80
47520;DHT22;33252;48.122;11.538;2023-06-26T07:01:17;23.60;72.50
47520;DHT22;33252;48.122;11.538;2023-06-26T07:03:43;23.70;72.50
47520;DHT22;33252;48.122;11.538;2023-06-26T07:06:08;23.80;72.00
47520;DHT22;33252;48.122;11.538;2023-06-26T07:08:34;23.90;72.70
47520;DHT22;33252;48.122;11.538;2023-06-26T07:11:00;23.80;72.90
47520;DHT22;33252;48.122;11.538;2023-06-26T07:13:26;23.90;73.70
47520;DHT22;33252;48.122;11.538;2023-06-26T07:15:52;23.90;73.70
47520;DHT22;33252;48.122;11.538;2023-06-26T07:18:18;24.10;73.10
47520;DHT22;33252;48.122;11.538;2023-06-26T07:20:43;24.10;73.30
47520;DHT22;33252;48.122;11.538;2023-06-26T07:23:09;24.10;73.40
47520;DHT22;33252;48.122;11.538;2023-06-26T07:25:35;24.20;73.40
47520;DHT22;33252;48.122;11.538;2023-06-26T07:28:01;24.30;72.60
47520;DHT22;33252;48.122;11.538;2023-06-26T07:30:27;24.30;73.00
47520;DHT22;33252;48.122;11.538;2023-06-26T07:32:53;24.40;73.30
47520;DHT22;33252;48.122;11.538;2023-06-26T07:35:18;24.50;73.30
47520;DHT22;33252;48.122;11.538;2023-06-26T07:37:44;24.60;73.30
47520;DHT22;33252;48.122;11.538;2023-06-26T07:40:10;24.60;72.70
47520;DHT22;33252;48.122;11.538;2023-06-26T07:42:36;24.70;72.70
47520;DHT22;33252;48.122;11.538;2023-06-26T07:45:02;24.80;73.00
47520;DHT22;33252;48.122;11.538;2023-06-26T07:47:35;24.90;72.60
47520;DHT22;33252;48.122;11.538;2023-06-26T07:50:01;24.90;72.40
47520;DHT22;33252;48.122;11.538;2023-06-26T07:52:27;24.90;72.20
47520;DHT22;33252;48.122;11.538;2023-06-26T07:54:53;25.00;72.40
47520;DHT22;33252;48.122;11.538;2023-06-26T07:57:18;25.00;72.60
47520;DHT22;33252;48.122;11.538;2023-06-26T07:59:44;25.00;72.60
47520;DHT22;33252;48.122;11.538;2023-06-26T08:02:10;25.10;73.00
47520;DHT22;33252;48.122;11.538;2023-06-26T08:04:35;25.10;72.10
47520;DHT22;33252;48.122;11.538;2023-06-26T08:07:02;25.20;72.40
47520;DHT22;33252;48.122;11.538;2023-06-26T08:09:29;25.20;71.90
47520;DHT22;33252;48.122;11.538;2023-06-26T08:11:56;25.20;72.70
47520;DHT22;33252;48.122;11.538;2023-06-26T08:14:22;25.30;72.30
47520;DHT22;33252;48.122;11.538;2023-06-26T08:16:49;25.50;72.50
47520;DHT22;33252;48.122;11.538;2023-06-26T08:19:15;25.50;72.40
47520;DHT22;33252;48.122;11.538;2023-06-26T08:21:42;25.50;72.60
47520;DHT22;33252;48.122;11.538;2023-06-26T08:24:08;25.60;72.10
47520;DHT22;33252;48.122;11.538;2023-06-26T08:26:35;25.60;71.60
47520;DHT22;33252;48.122;11.538;2023-06-26T08:29:01;25.70;72.20
47520;DHT22;33252;48.122;11.538;2023-06-26T08:31:36;25.80;72.00
47520;DHT22;33252;48.122;11.538;2023-06-26T08:34:02;26.00;71.90
47520;DHT22;33252;48.122;11.538;2023-06-26T08:36:28;26.10;71.30
47520;DHT22;33252;48.122;11.538;2023-06-26T08:38:54;26.10;71.10
47520;DHT22;33252;48.122;11.538;2023-06-26T08:41:20;26.10;71.80
47520;DHT22;33252;48.122;11.538;2023-06-26T08:43:46;26.20;70.70
47520;DHT22;33252;48.122;11.538;2023-06-26T08:46:14;26.20;70.80
47520;DHT22;33252;48.122;11.538;2023-06-26T08:48:42;26.20;71.00
47520;DHT22;33252;48.122;11.538;2023-06-26T08:51:12;26.30;70.90
47520;DHT22;33252;48.122;11.538;2023-06-26T08:54:01;26.30;70.50
47520;DHT22;33252;48.122;11.538;2023-06-26T08:56:42;26.50;70.40
47520;DHT22;33252;48.122;11.538;2023-06-26T08:59:10;26.60;70.10
47520;DHT22;33252;48.122;11.538;2023-06-26T09:01:36;26.70;69.70
47520;DHT22;33252;48.122;11.538;2023-06-26T09:04:02;26.90;67.70
47520;DHT22;33252;48.122;11.538;2023-06-26T09:06:28;26.80;66.70
47520;DHT22;33252;48.122;11.538;2023-06-26T09:08:53;26.90;67.30
47520;DHT22;33252;48.122;11.538;2023-06-26T09:11:20;26.80;68.10
47520;DHT22;33252;48.122;11.538;2023-06-26T09:13:46;26.80;67.90
47520;DHT22;33252;48.122;11.538;2023-06-26T09:16:13;26.80;67.80
47520;DHT22;33252;48.122;11.538;2023-06-26T09:18:40;27.00;68.30
47520;DHT22;33252;48.122;11.538;2023-06-26T09:21:07;26.90;68.50
47520;DHT22;33252;48.122;11.538;2023-06-26T09:23:35;27.10;68.00
47520;DHT22;33252;48.122;11.538;2023-06-26T09:26:07;26.90;69.40
47520;DHT22;33252;48.122;11.538;2023-06-26T09:28:33;26.90;69.60
47520;DHT22;33252;48.122;11.538;2023-06-26T09:31:03;26.90;69.40
47520;DHT22;33252;48.122;11.538;2023-06-26T09:33:37;26.90;65.70
47520;DHT22;33252;48.122;11.538;2023-06-26T09:36:06;27.00;66.50
47520;DHT22;33252;48.122;11.538;2023-06-26T09:38:34;27.20;67.80
47520;DHT22;33252;48.122;11.538;2023-06-26T09:41:01;27.60;65.80
47520;DHT22;33252;48.122;11.538;2023-06-26T09:43:27;27.70;63.70
47520;DHT22;33252;48.122;11.538;2023-06-26T09:45:53;27.50;66.50
47520;DHT22;33252;48.122;11.538;2023-06-26T09:48:19;27.50;66.10
47520;DHT22;33252;48.122;11.538;2023-06-26T09:50:46;27.20;67.50
47520;DHT22;33252;48.122;11.538;2023-06-26T09:53:12;27.30;65.80
47520;DHT22;33252;48.122;11.538;2023-06-26T09:55:43;27.40;64.40
47520;DHT22;33252;48.122;11.538;2023-06-26T09:58:12;27.30;64.50
47520;DHT22;33252;48.122;11.538;2023-06-26T10:00:41;27.30;64.80
47520;DHT22;33252;48.122;11.538;2023-06-26T10:03:07;27.30;66.60
47520;DHT22;33252;48.122;11.538;2023-06-26T10:05:33;27.50;64.60
47520;DHT22;33252;48.122;11.538;2023-06-26T10:07:59;27.60;64.30
47520;DHT22;33252;48.122;11.538;2023-06-26T10:10:27;27.90;63.60
47520;DHT22;33252;48.122;11.538;2023-06-26T10:13:01;28.10;62.60
47520;DHT22;33252;48.122;11.538;2023-06-26T10:15:30;28.20;61.60
47520;DHT22;33252;48.122;11.538;2023-06-26T10:17:56;28.00;63.00
47520;DHT22;33252;48.122;11.538;2023-06-26T10:20:24;27.80;62.90
47520;DHT22;33252;48.122;11.538;2023-06-26T10:22:50;27.90;62.60
47520;DHT22;33252;48.122;11.538;2023-06-26T10:25:19;27.90;61.20
47520;DHT22;33252;48.122;11.538;2023-06-26T10:27:54;28.00;62.20
47520;DHT22;33252;48.122;11.538;2023-06-26T10:30:24;28.20;61.20
47520;DHT22;33252;48.122;11.538;2023-06-26T10:32:52;28.40;62.30
47520;DHT22;33252;48.122;11.538;2023-06-26T10:35:18;28.70;61.80
47520;DHT22;33252;48.122;11.538;2023-06-26T10:37:46;28.90;62.60
47520;DHT22;33252;48.122;11.538;2023-06-26T10:40:14;28.60;61.30
47520;DHT22;33252;48.122;11.538;2023-06-26T10:42:40;28.90;61.40
47520;DHT22;33252;48.122;11.538;2023-06-26T10:45:16;28.80;61.20
47520;DHT22;33252;48.122;11.538;2023-06-26T10:47:45;28.60;62.30
47520;DHT22;33252;48.122;11.538;2023-06-26T10:50:30;28.60;60.60
47520;DHT22;33252;48.122;11.538;2023-06-26T10:56:02;28.70;60.90
47520;DHT22;33252;48.122;11.538;2023-06-26T10:58:40;28.70;60.60
47520;DHT22;33252;48.122;11.538;2023-06-26T11:01:19;28.80;61.30
47520;DHT22;33252;48.122;11.538;2023-06-26T11:06:27;29.40;59.60
47520;DHT22;33252;48.122;11.538;2023-06-26T11:09:06;29.30;60.30
47520;DHT22;33252;48.122;11.538;2023-06-26T11:14:20;29.40;60.50
47520;DHT22;33252;48.122;11.538;2023-06-26T11:16:46;29.60;59.40
47520;DHT22;33252;48.122;11.538;2023-06-26T11:19:13;29.50;60.20
47520;DHT22;33252;48.122;11.538;2023-06-26T11:21:39;29.50;59.40
47520;DHT22;33252;48.122;11.538;2023-06-26T11:24:09;29.40;60.10
47520;DHT22;33252;48.122;11.538;2023-06-26T11:26:39;29.10;61.40
47520;DHT22;33252;48.122;11.538;2023-06-26T11:29:05;28.90;60.90
47520;DHT22;33252;48.122;11.538;2023-06-26T11:31:36;28.90;61.00
47520;DHT22;33252;48.122;11.538;2023-06-26T11:34:04;29.00;60.30
47520;DHT22;33252;48.122;11.538;2023-06-26T11:36:30;29.00;60.30
47520;DHT22;33252;48.122;11.538;2023-06-26T11:38:57;29.30;60.10
47520;DHT22;33252;48.122;11.538;2023-06-26T11:41:25;28.90;61.10
47520;DHT22;33252;48.122;11.538;2023-06-26T11:43:51;28.80;62.10
47520;DHT22;33252;48.122;11.538;2023-06-26T11:46:19;29.10;61.80
47520;DHT22;33252;48.122;11.538;2023-06-26T11:48:45;29.50;61.30
47520;DHT22;33252;48.122;11.538;2023-06-26T11:51:15;29.10;62.50
47520;DHT22;33252;48.122;11.538;2023-06-26T11:53:45;29.10;61.90
47520;DHT22;33252;48.122;11.538;2023-06-26T11:56:16;29.40;62.30
47520;DHT22;33252;48.122;11.538;2023-06-26T12:01:45;29.60;62.10
47520;DHT22;33252;48.122;11.538;2023-06-26T12:04:12;29.80;58.50
47520;DHT22;33252;48.122;11.538;2023-06-26T12:06:40;29.80;57.60
47520;DHT22;33252;48.122;11.538;2023-06-26T12:09:10;29.90;57.60
47520;DHT22;33252;48.122;11.538;2023-06-26T12:11:42;30.10;59.80
47520;DHT22;33252;48.122;11.538;2023-06-26T12:14:08;30.00;57.60
47520;DHT22;33252;48.122;11.538;2023-06-26T12:16:35;30.40;58.60
47520;DHT22;33252;48.122;11.538;2023-06-26T12:19:02;30.10;58.20
47520;DHT22;33252;48.122;11.538;2023-06-26T12:24:07;30.10;59.20
47520;DHT22;33252;48.122;11.538;2023-06-26T12:26:34;30.10;58.60
47520;DHT22;33252;48.122;11.538;2023-06-26T12:29:11;30.30;59.20
47520;DHT22;33252;48.122;11.538;2023-06-26T12:31:56;30.50;59.20
47520;DHT22;33252;48.122;11.538;2023-06-26T12:34:32;30.70;60.00
47520;DHT22;33252;48.122;11.538;2023-06-26T12:37:03;30.50;59.90
47520;DHT22;33252;48.122;11.538;2023-06-26T12:39:30;30.40;61.20
47520;DHT22;33252;48.122;11.538;2023-06-26T12:42:14;30.40;59.70
47520;DHT22;33252;48.122;11.538;2023-06-26T12:44:40;30.70;59.60
47520;DHT22;33252;48.122;11.538;2023-06-26T12:47:05;30.80;60.50
47520;DHT22;33252;48.122;11.538;2023-06-26T12:49:40;30.70;58.80
47520;DHT22;33252;48.122;11.538;2023-06-26T12:52:08;30.90;58.60
47520;DHT22;33252;48.122;11.538;2023-06-26T12:54:34;31.10;59.70
47520;DHT22;33252;48.122;11.538;2023-06-26T12:57:00;31.00;59.60
47520;DHT22;33252;48.122;11.538;2023-06-26T12:59:26;31.10;56.50
47520;DHT22;33252;48.122;11.538;2023-06-26T13:01:51;31.20;55.30
47520;DHT22;33252;48.122;11.538;2023-06-26T13:04:18;31.40;57.10
47520;DHT22;33252;48.122;11.538;2023-06-26T13:06:43;31.50;57.60
47520;DHT22;33252;48.122;11.538;2023-06-26T13:09:09;31.80;56.80
47520;DHT22;33252;48.122;11.538;2023-06-26T13:11:36;32.00;57.00
47520;DHT22;33252;48.122;11.538;2023-06-26T13:14:03;31.90;56.30
47520;DHT22;33252;48.122;11.538;2023-06-26T13:16:29;31.20;58.00
47520;DHT22;33252;48.122;11.538;2023-06-26T13:18:55;30.70;57.70
47520;DHT22;33252;48.122;11.538;2023-06-26T13:21:21;30.40;58.40
47520;DHT22;33252;48.122;11.538;2023-06-26T13:23:47;30.80;58.40
47520;DHT22;33252;48.122;11.538;2023-06-26T13:26:13;31.50;58.40
47520;DHT22;33252;48.122;11.538;2023-06-26T13:28:38;31.80;57.20
47520;DHT22;33252;48.122;11.538;2023-06-26T13:31:04;31.50;57.30
47520;DHT22;33252;48.122;11.538;2023-06-26T13:33:31;31.90;58.20
47520;DHT22;33252;48.122;11.538;2023-06-26T13:35:57;32.70;56.50
47520;DHT22;33252;48.122;11.538;2023-06-26T13:38:24;33.20;56.30
47520;DHT22;33252;48.122;11.538;2023-06-26T13:40:54;33.90;55.90
47520;DHT22;33252;48.122;11.538;2023-06-26T13:43:21;33.10;56.20
47520;DHT22;33252;48.122;11.538;2023-06-26T13:45:48;32.40;55.80
47520;DHT22;33252;48.122;11.538;2023-06-26T13:48:14;32.70;56.50
47520;DHT22;33252;48.122;11.538;2023-06-26T13:50:40;32.40;56.60
47520;DHT22;33252;48.122;11.538;2023-06-26T13:53:05;31.70;57.70
47520;DHT22;33252;48.122;11.538;2023-06-26T13:55:32;31.10;58.90
47520;DHT22;33252;48.122;11.538;2023-06-26T13:57:58;30.60;59.30
47520;DHT22;33252;48.122;11.538;2023-06-26T14:00:24;30.40;60.30
47520;DHT22;33252;48.122;11.538;2023-06-26T14:02:51;30.70;60.10
47520;DHT22;33252;48.122;11.538;2023-06-26T14:05:16;31.90;58.50
47520;DHT22;33252;48.122;11.538;2023-06-26T14:07:44;32.50;57.80
47520;DHT22;33252;48.122;11.538;2023-06-26T14:10:10;32.90;56.90
47520;DHT22;33252;48.122;11.538;2023-06-26T14:12:36;33.80;56.00
47520;DHT22;33252;48.122;11.538;2023-06-26T14:15:02;34.40;54.30
47520;DHT22;33252;48.122;11.538;2023-06-26T14:17:28;34.40;55.60
47520;DHT22;33252;48.122;11.538;2023-06-26T14:19:54;35.10;54.50
47520;DHT22;33252;48.122;11.538;2023-06-26T14:22:20;35.80;53.10
47520;DHT22;33252;48.122;11.538;2023-06-26T14:24:47;36.30;52.00
47520;DHT22;33252;48.122;11.538;2023-06-26T14:27:13;36.50;51.50
47520;DHT22;33252;48.122;11.538;2023-06-26T14:29:39;36.50;52.40
47520;DHT22;33252;48.122;11.538;2023-06-26T14:32:06;35.90;52.60
47520;DHT22;33252;48.122;11.538;2023-06-26T14:34:31;36.30;51.70
47520;DHT22;33252;48.122;11.538;2023-06-26T14:36:57;36.40;51.40
47520;DHT22;33252;48.122;11.538;2023-06-26T14:39:23;35.80;51.60
47520;DHT22;33252;48.122;11.538;2023-06-26T14:41:48;35.90;52.40
47520;DHT22;33252;48.122;11.538;2023-06-26T14:44:15;36.30;52.00
47520;DHT22;33252;48.122;11.538;2023-06-26T14:46:40;36.10;52.60
47520;DHT22;33252;48.122;11.538;2023-06-26T14:49:06;36.10;52.00
47520;DHT22;33252;48.122;11.538;2023-06-26T14:51:31;36.40;52.10
47520;DHT22;33252;48.122;11.538;2023-06-26T14:53:57;37.10;49.90
47520;DHT22;33252;48.122;11.538;2023-06-26T14:56:23;37.00;50.50
47520;DHT22;33252;48.122;11.538;2023-06-26T14:58:49;35.30;51.70
47520;DHT22;33252;48.122;11.538;2023-06-26T15:01:20;35.00;52.00
47520;DHT22;33252;48.122;11.538;2023-06-26T15:03:46;35.50;52.20
47520;DHT22;33252;48.122;11.538;2023-06-26T15:06:12;34.70;53.70
47520;DHT22;33252;48.122;11.538;2023-06-26T15:08:38;33.90;53.30
47520;DHT22;33252;48.122;11.538;2023-06-26T15:11:04;33.20;54.50
47520;DHT22;33252;48.122;11.538;2023-06-26T15:13:29;33.60;55.70
47520;DHT22;33252;48.122;11.538;2023-06-26T15:15:55;34.90;54.30
47520;DHT22;33252;48.122;11.538;2023-06-26T15:18:21;34.60;53.60
47520;DHT22;33252;48.122;11.538;2023-06-26T15:20:46;33.30;53.70
47520;DHT22;33252;48.122;11.538;2023-06-26T15:23:12;32.60;54.60
47520;DHT22;33252;48.122;11.538;2023-06-26T15:25:38;32.00;55.70
47520;DHT22;33252;48.122;11.538;2023-06-26T15:28:06;31.40;56.80
47520;DHT22;33252;48.122;11.538;2023-06-26T15:30:32;31.00;57.70
47520;DHT22;33252;48.122;11.538;2023-06-26T15:32:58;30.60;58.70
47520;DHT22;33252;48.122;11.538;2023-06-26T15:35:24;30.40;57.90